Time;durP1;ratioP1;P1;durP2;ratioP2;P2;SDS_P1;SDS_P2;PMS_P1;PMS_P2;Temp;Humidity;BMP_temperature;BMP_pressure;BME280_temperature;BME280_humidity;BME280_pressure;Samples;Min_cycle;Max_cycle;Signal;HPM_P1;HPM_P2
2022/07/29 00:01:46;;;;;;;;;0.00;0.00;;;;;17.69;55.66;101860.13;5013319;28;8851;-68
2022/07/29 00:04:15;;;;;;;;;1.75;1.75;;;;;17.64;55.28;101847.16;5007770;28;8841;-67
2022/07/29 00:06:42;;;;;;;;;0.75;0.75;;;;;17.61;55.89;101850.31;4993454;28;8825;-66
2022/07/29 00:09:08;;;;;;;;;2.00;1.00;;;;;17.58;56.11;101847.16;5004710;28;8897;-66
2022/07/29 00:11:35;;;;;;;;;1.00;1.00;;;;;17.54;55.77;101852.22;5004822;28;8835;-65
2022/07/29 00:14:02;;;;;;;;;0.00;0.00;;;;;17.53;56.04;101847.81;5007546;28;9533;-65
2022/07/29 00:16:28;;;;;;;;;0.00;0.00;;;;;17.50;55.70;101843.66;5013035;28;8839;-65
2022/07/29 00:18:55;;;;;;;;;2.25;1.00;;;;;17.48;55.95;101839.47;5012760;28;8843;-65
2022/07/29 00:21:21;;;;;;;;;2.00;2.00;;;;;17.50;56.17;101840.06;5012619;28;8827;-66
2022/07/29 00:23:47;;;;;;;;;1.00;0.25;;;;;17.49;56.04;101838.41;4998042;28;8964;-66
2022/07/29 00:26:14;;;;;;;;;1.00;1.00;;;;;17.43;56.27;101828.41;5005363;28;8945;-66
2022/07/29 00:28:40;;;;;;;;;1.00;1.00;;;;;17.45;56.39;101829.00;5004049;28;8889;-65
2022/07/29 00:31:07;;;;;;;;;1.00;1.00;;;;;17.46;56.10;101822.50;5012632;28;8953;-65
2022/07/29 00:33:34;;;;;;;;;1.00;1.00;;;;;17.50;55.83;101821.03;5012810;28;8827;-65
2022/07/29 00:36:00;;;;;;;;;0.25;0.25;;;;;17.45;55.82;101818.13;5012631;28;8823;-66
2022/07/29 00:38:27;;;;;;;;;2.00;2.00;;;;;17.38;56.36;101811.88;5011223;28;9527;-66
2022/07/29 00:40:53;;;;;;;;;0.50;0.50;;;;;17.42;55.71;101819.41;5005626;28;8825;-66
2022/07/29 00:43:20;;;;;;;;;1.00;1.00;;;;;17.47;55.82;101816.03;5009354;28;8823;-67
2022/07/29 00:45:46;;;;;;;;;1.00;1.00;;;;;17.50;56.06;101810.13;5012462;28;8823;-64
2022/07/29 00:48:12;;;;;;;;;1.00;1.00;;;;;17.55;55.95;101808.44;5010925;28;9009;-65
2022/07/29 00:50:39;;;;;;;;;1.00;1.00;;;;;17.54;55.87;101803.19;5001196;28;8826;-65
2022/07/29 00:53:07;;;;;;;;;1.00;1.00;;;;;17.47;56.09;101814.16;4993108;28;8852;-65
2022/07/29 00:55:34;;;;;;;;;0.00;0.00;;;;;17.37;56.60;101802.03;5004722;28;8834;-66
2022/07/29 00:58:01;;;;;;;;;1.00;1.00;;;;;17.33;56.88;101796.19;5012170;28;8819;-67
2022/07/29 01:00:28;;;;;;;;;1.75;1.75;;;;;17.26;57.07;101800.84;5012300;28;9522;-66
2022/07/29 01:02:55;;;;;;;;;1.00;1.00;;;;;17.34;56.92;101800.59;4999165;28;8842;-66
2022/07/29 01:05:23;;;;;;;;;1.50;1.50;;;;;17.39;56.25;101795.34;4992557;28;9619;-66
2022/07/29 01:07:53;;;;;;;;;2.00;2.00;;;;;17.33;56.72;101798.06;4996957;28;8820;-65
2022/07/29 01:10:22;;;;;;;;;1.50;1.25;;;;;17.25;56.79;101793.72;5003623;28;8800;-65
2022/07/29 01:12:50;;;;;;;;;0.00;0.00;;;;;17.28;56.51;101799.56;4992459;28;9667;-67
2022/07/29 01:15:17;;;;;;;;;1.75;1.00;;;;;17.33;56.18;101789.91;4992520;28;8891;-66
2022/07/29 01:18:14;;;;;;;;;1.00;1.00;;;;;17.32;56.31;101793.69;4992050;28;8960;-66
2022/07/29 01:20:56;;;;;;;;;1.75;0.00;;;;;17.33;56.48;101796.19;4992038;28;9638;-67
2022/07/29 01:24:04;;;;;;;;;1.00;1.00;;;;;17.38;56.20;101790.09;5004433;28;8893;-67
2022/07/29 01:26:58;;;;;;;;;1.00;1.00;;;;;17.38;56.44;101790.09;4981746;28;8952;-67
2022/07/29 01:29:29;;;;;;;;;1.00;1.00;;;;;17.37;56.25;101788.44;5002135;28;8946;-66
2022/07/29 01:32:15;;;;;;;;;0.75;0.75;;;;;17.26;56.58;101785.34;5006513;28;8847;-67
2022/07/29 01:35:01;;;;;;;;;1.00;1.00;;;;;17.24;56.79;101781.16;5011298;28;8834;-67
2022/07/29 01:37:50;;;;;;;;;0.00;0.00;;;;;17.32;56.81;101780.09;5010391;28;9527;-66
2022/07/29 01:40:24;;;;;;;;;1.75;1.75;;;;;17.29;56.72;101789.50;5003422;28;8893;-66
2022/07/29 01:42:54;;;;;;;;;1.25;1.25;;;;;17.23;56.61;101780.31;5007830;28;8909;-67
2022/07/29 01:45:33;;;;;;;;;2.00;2.00;;;;;17.17;56.96;101781.16;5011288;28;8906;-67
2022/07/29 01:48:14;;;;;;;;;1.75;1.75;;;;;17.17;57.21;101783.06;5011044;28;8912;-66
2022/07/29 01:50:51;;;;;;;;;1.00;1.00;;;;;17.19;56.84;101781.81;5009623;28;8901;-66
2022/07/29 01:53:34;;;;;;;;;1.67;1.67;;;;;17.18;56.88;101771.97;5010683;28;8978;-65
2022/07/29 01:56:06;;;;;;;;;2.00;2.00;;;;;17.20;56.86;101774.47;5006933;28;8999;-67
2022/07/29 01:58:35;;;;;;;;;1.33;1.33;;;;;17.19;56.72;101770.94;4994010;28;9655;-66
2022/07/29 02:01:03;;;;;;;;;1.75;1.00;;;;;17.19;57.11;101775.53;5012009;28;8922;-67
2022/07/29 02:03:32;;;;;;;;;3.00;3.00;;;;;17.22;57.08;101764.22;5010550;28;8909;-66
2022/07/29 02:06:03;;;;;;;;;1.00;1.00;;;;;17.25;56.50;101770.03;5006032;28;9525;-66
2022/07/29 02:08:32;;;;;;;;;2.00;2.00;;;;;17.30;56.69;101756.66;5007523;28;9009;-67
2022/07/29 02:11:02;;;;;;;;;1.67;1.67;;;;;17.29;56.84;101763.13;5006342;28;8857;-66
2022/07/29 02:13:31;;;;;;;;;2.00;2.00;;;;;17.33;56.96;101762.69;5011699;28;8913;-67
2022/07/29 02:15:59;;;;;;;;;1.50;1.50;;;;;17.37;56.85;101753.03;5003900;28;8832;-66
2022/07/29 02:18:30;;;;;;;;;2.00;1.00;;;;;17.39;56.71;101762.69;5011750;28;8831;-67
2022/07/29 02:20:59;;;;;;;;;2.00;2.00;;;;;17.42;56.52;101754.09;5011500;28;8929;-67
2022/07/29 02:23:26;;;;;;;;;3.00;2.33;;;;;17.34;56.50;101758.91;5003880;28;8821;-66
2022/07/29 02:25:57;;;;;;;;;2.00;2.00;;;;;17.29;56.73;101752.25;5012731;28;9132;-67
2022/07/29 02:28:27;;;;;;;;;1.50;1.50;;;;;17.28;56.67;101769.63;5003754;28;9113;-65
2022/07/29 02:30:57;;;;;;;;;3.33;2.33;;;;;17.22;56.41;101756.91;4990935;28;8825;-66
2022/07/29 02:33:25;;;;;;;;;2.00;2.00;;;;;17.22;55.88;101762.34;4990981;28;8914;-65
2022/07/29 02:35:52;;;;;;;;;1.25;1.25;;;;;17.24;56.30;101767.56;4993916;28;8830;-66
2022/07/29 02:41:11;;;;;;;;;2.00;2.00;;;;;17.22;56.67;101747.91;4993161;28;8837;-66
2022/07/29 02:43:40;;;;;;;;;1.00;1.00;;;;;17.25;56.19;101758.34;5002129;28;8909;-66
2022/07/29 02:46:12;;;;;;;;;2.00;2.00;;;;;17.32;56.10;101761.03;4993278;28;8829;-66
2022/07/29 02:49:31;;;;;;;;;2.00;1.00;;;;;17.31;55.80;101754.75;5006625;28;8924;-66
2022/07/29 02:52:02;;;;;;;;;3.00;2.00;;;;;17.30;55.43;101759.38;4994860;28;8849;-66
2022/07/29 02:54:40;;;;;;;;;1.25;1.00;;;;;17.21;55.85;101754.38;4994965;28;8841;-65
2022/07/29 02:57:36;;;;;;;;;2.00;1.00;;;;;17.18;56.24;101754.81;5007067;28;8831;-66
2022/07/29 03:00:23;;;;;;;;;2.00;2.00;;;;;17.19;56.06;101756.50;5011323;28;9002;-66
2022/07/29 03:02:53;;;;;;;;;1.75;1.75;;;;;17.21;56.14;101747.03;5014253;28;8914;-66
2022/07/29 03:05:21;;;;;;;;;1.25;1.25;;;;;17.21;55.73;101751.66;5014178;28;8889;-67
2022/07/29 03:07:55;;;;;;;;;2.75;1.00;;;;;17.18;55.50;101749.38;5010861;28;8844;-66
2022/07/29 03:10:24;;;;;;;;;0.25;0.25;;;;;17.14;55.64;101746.25;5013341;28;9624;-67
2022/07/29 03:12:51;;;;;;;;;1.00;1.00;;;;;17.15;55.37;101747.09;5006373;28;8839;-66
2022/07/29 03:15:19;;;;;;;;;2.00;2.00;;;;;17.13;56.08;101746.44;5012936;28;8906;-67
2022/07/29 03:17:46;;;;;;;;;1.33;1.33;;;;;17.08;55.84;101741.66;5007196;28;8910;-67
2022/07/29 03:20:13;;;;;;;;;2.00;1.00;;;;;17.06;56.09;101741.06;5012732;28;9029;-66
2022/07/29 03:22:43;;;;;;;;;1.00;1.00;;;;;17.12;56.05;101742.06;5013929;28;8941;-66
2022/07/29 03:25:11;;;;;;;;;1.00;0.00;;;;;17.16;55.83;101735.16;5013207;28;9066;-66
2022/07/29 03:27:37;;;;;;;;;0.50;0.25;;;;;17.13;56.19;101732.84;5007714;28;8941;-65
2022/07/29 03:30:06;;;;;;;;;1.00;1.00;;;;;17.10;56.27;101742.31;5002247;28;8856;-66
2022/07/29 03:32:35;;;;;;;;;1.33;1.33;;;;;17.13;56.20;101733.69;4986657;28;8805;-64
2022/07/29 03:35:02;;;;;;;;;1.00;0.67;;;;;17.11;56.40;101741.25;4994607;28;8975;-65
2022/07/29 03:37:30;;;;;;;;;2.75;1.75;;;;;17.05;56.42;101736.66;4994211;28;9051;-65
2022/07/29 03:39:58;;;;;;;;;2.25;1.00;;;;;17.04;56.48;101735.81;4995351;28;8829;-66
2022/07/29 03:42:27;;;;;;;;;3.00;2.00;;;;;17.00;56.52;101741.91;5007121;28;8843;-64
2022/07/29 03:45:03;;;;;;;;;1.00;1.00;;;;;16.94;56.45;101735.44;4994030;28;8986;-67
2022/07/29 03:47:31;;;;;;;;;1.00;1.00;;;;;17.02;56.65;101734.38;4980316;28;8933;-66
2022/07/29 03:50:19;;;;;;;;;3.00;2.00;;;;;17.07;56.57;101728.28;5003188;28;8985;-67
2022/07/29 03:52:46;;;;;;;;;1.00;1.00;;;;;17.05;56.35;101715.75;4995607;28;9086;-66
2022/07/29 03:55:13;;;;;;;;;2.00;1.67;;;;;17.07;57.04;101729.13;5001074;28;9003;-67
2022/07/29 03:57:41;;;;;;;;;1.00;1.00;;;;;17.10;56.51;101731.41;5006132;28;9012;-67
2022/07/29 04:00:08;;;;;;;;;1.00;1.00;;;;;17.09;57.11;101727.00;5015343;28;8922;-66
2022/07/29 04:02:37;;;;;;;;;2.00;2.00;;;;;17.01;56.60;101725.38;4997144;28;9001;-68
2022/07/29 04:05:04;;;;;;;;;2.00;1.00;;;;;16.96;57.13;101730.63;5014895;28;9105;-66
2022/07/29 04:07:31;;;;;;;;;1.00;1.00;;;;;16.96;56.88;101729.78;4985617;28;8838;-67
2022/07/29 04:09:57;;;;;;;;;2.00;1.00;;;;;16.99;57.12;101737.53;5000369;28;9158;-66
2022/07/29 04:12:24;;;;;;;;;1.00;1.00;;;;;16.98;56.98;101723.09;5014051;28;8905;-65
2022/07/29 04:14:51;;;;;;;;;3.75;2.00;;;;;16.96;56.76;101729.78;4999735;28;9522;-67
2022/07/29 04:17:17;;;;;;;;;1.00;1.00;;;;;16.92;57.52;101723.94;5004779;28;8829;-67
2022/07/29 04:19:44;;;;;;;;;2.00;2.00;;;;;16.93;57.54;101733.75;4993376;28;8837;-65
2022/07/29 04:22:10;;;;;;;;;2.50;1.75;;;;;16.93;57.34;101731.03;4993177;28;8834;-67
2022/07/29 04:24:36;;;;;;;;;3.00;2.00;;;;;16.94;57.64;101726.47;5005297;28;8837;-67
2022/07/29 04:27:03;;;;;;;;;2.25;1.75;;;;;16.96;57.36;101727.91;5000428;28;8925;-67
2022/07/29 04:29:29;;;;;;;;;1.75;1.75;;;;;17.02;57.26;101728.94;5011105;28;8997;-67
2022/07/29 04:31:56;;;;;;;;;2.00;1.00;;;;;17.05;57.10;101725.75;4992974;28;8821;-68
2022/07/29 04:34:22;;;;;;;;;2.75;1.75;;;;;17.03;56.88;101726.00;4993022;28;8818;-66
2022/07/29 04:36:54;;;;;;;;;2.00;2.00;;;;;17.01;57.18;101728.09;4992671;28;8840;-67
2022/07/29 04:39:20;;;;;;;;;1.00;1.00;;;;;17.07;57.18;101720.97;5006890;28;8940;-66
2022/07/29 04:41:49;;;;;;;;;2.00;2.00;;;;;17.12;57.30;101728.47;5004438;28;8847;-66
2022/07/29 04:44:17;;;;;;;;;2.00;2.00;;;;;17.09;56.45;101727.00;5050360;23;9811;-65
2022/07/29 04:46:45;;;;;;;;;1.00;1.00;;;;;17.08;56.69;101724.50;5021459;28;9204;-65
2022/07/29 04:49:12;;;;;;;;;2.00;1.00;;;;;17.09;56.99;101731.63;5039618;28;9538;-65
2022/07/29 04:51:39;;;;;;;;;2.00;2.00;;;;;17.04;56.83;101730.38;5033069;28;8944;-64
2022/07/29 04:54:06;;;;;;;;;2.00;2.00;;;;;16.97;57.00;101726.00;5033222;28;9673;-65
2022/07/29 04:56:32;;;;;;;;;0.33;0.33;;;;;16.96;57.10;101717.00;5032356;28;8914;-65
2022/07/29 04:58:59;;;;;;;;;1.00;1.00;;;;;17.01;56.97;101713.66;5006744;28;8989;-65
2022/07/29 05:01:25;;;;;;;;;1.67;1.67;;;;;17.02;56.92;101716.16;5017855;28;8870;-65
2022/07/29 05:03:52;;;;;;;;;2.00;0.50;;;;;17.04;57.16;101726.81;5016977;28;8974;-65
2022/07/29 05:06:25;;;;;;;;;1.00;1.00;;;;;17.10;57.20;101722.44;5024738;28;8829;-65
2022/07/29 05:08:51;;;;;;;;;2.00;2.00;;;;;17.07;57.70;101717.41;5011794;28;9001;-64
2022/07/29 05:11:18;;;;;;;;;1.00;0.75;;;;;17.12;57.64;101720.31;5012390;28;9701;-64
2022/07/29 05:13:48;;;;;;;;;1.00;1.00;;;;;17.16;57.67;101721.53;5018066;28;8831;-65
2022/07/29 05:16:14;;;;;;;;;1.00;1.00;;;;;17.13;58.18;101720.06;5035879;28;8859;-65
2022/07/29 05:18:41;;;;;;;;;1.00;1.00;;;;;17.07;59.18;101714.69;5003005;28;8915;-65
2022/07/29 05:21:08;;;;;;;;;2.00;1.00;;;;;17.11;59.06;101727.63;4992204;28;9624;-64
2022/07/29 05:23:34;;;;;;;;;0.50;0.00;;;;;17.06;59.22;101722.00;4992358;28;8960;-65
2022/07/29 05:26:01;;;;;;;;;1.67;1.00;;;;;17.02;59.28;101724.34;4992710;28;8864;-65
2022/07/29 05:28:27;;;;;;;;;1.00;1.00;;;;;17.04;59.18;101727.66;5013741;28;9617;-64
2022/07/29 05:30:54;;;;;;;;;1.00;1.00;;;;;17.11;59.10;101716.75;5024536;28;8939;-65
2022/07/29 05:33:20;;;;;;;;;2.00;2.00;;;;;17.12;59.24;101723.84;5020205;28;8854;-64
2022/07/29 05:36:06;;;;;;;;;1.00;1.00;;;;;17.12;59.30;101715.69;5022745;28;9595;-65
2022/07/29 05:38:35;;;;;;;;;3.00;1.00;;;;;17.12;59.78;101729.28;5011251;28;8923;-64
2022/07/29 05:41:01;;;;;;;;;2.00;2.00;;;;;17.12;59.53;101729.28;5010152;28;8931;-65
2022/07/29 05:43:28;;;;;;;;;4.00;2.00;;;;;17.12;60.07;101733.91;5017505;28;8984;-65
2022/07/29 05:45:55;;;;;;;;;1.75;1.75;;;;;17.09;60.49;101740.59;5023129;28;8942;-64
2022/07/29 05:48:21;;;;;;;;;1.00;1.00;;;;;17.09;59.80;101723.44;5007236;28;8858;-65
2022/07/29 05:50:48;;;;;;;;;2.67;2.67;;;;;17.09;60.03;101735.16;5022173;28;8905;-65
2022/07/29 05:53:14;;;;;;;;;1.00;1.00;;;;;17.10;60.14;101733.31;5030759;28;8909;-65
2022/07/29 05:55:47;;;;;;;;;1.00;1.00;;;;;17.07;59.92;101744.59;5012699;28;8933;-65
2022/07/29 05:58:14;;;;;;;;;1.00;1.00;;;;;17.03;60.04;101742.31;5011558;28;8860;-66
2022/07/29 06:00:40;;;;;;;;;1.50;1.50;;;;;17.09;60.06;101737.88;5022299;28;8897;-66
2022/07/29 06:03:07;;;;;;;;;1.00;1.00;;;;;17.16;60.24;101749.59;5014628;28;8994;-66
2022/07/29 06:05:33;;;;;;;;;1.50;1.50;;;;;17.22;59.72;101734.28;5010910;28;8846;-66
2022/07/29 06:08:00;;;;;;;;;0.00;0.00;;;;;17.22;59.79;101735.13;5008938;28;8876;-66
2022/07/29 06:10:26;;;;;;;;;1.00;1.00;;;;;17.20;59.88;101737.22;5007953;28;8926;-65
2022/07/29 06:12:53;;;;;;;;;2.00;2.00;;;;;17.18;60.15;101735.78;5017604;28;8858;-66
2022/07/29 06:15:19;;;;;;;;;2.67;2.67;;;;;17.24;60.31;101730.28;5008824;28;8851;-65
2022/07/29 06:17:47;;;;;;;;;1.00;1.00;;;;;17.36;60.07;101725.00;5009211;28;9097;-66
2022/07/29 06:20:30;;;;;;;;;1.25;1.25;;;;;17.47;59.37;101731.66;4990812;28;9047;-67
2022/07/29 06:22:58;;;;;;;;;2.50;2.00;;;;;17.46;59.58;101722.66;4990959;28;8861;-66
2022/07/29 06:25:25;;;;;;;;;2.00;2.00;;;;;17.51;59.54;101725.53;5016703;28;8886;-65
2022/07/29 06:27:52;;;;;;;;;1.00;1.00;;;;;17.60;58.87;101719.84;5012808;28;8930;-65
2022/07/29 06:30:18;;;;;;;;;4.00;2.00;;;;;17.64;59.00;101732.78;5014826;28;8873;-67
2022/07/29 06:32:45;;;;;;;;;1.25;1.25;;;;;17.71;58.98;101725.41;4989494;28;8854;-66
2022/07/29 06:35:11;;;;;;;;;2.00;2.00;;;;;17.77;58.74;101732.72;4990575;28;8900;-66
2022/07/29 06:37:58;;;;;;;;;1.00;1.00;;;;;17.87;58.49;101740.44;4998621;28;9022;-66
2022/07/29 06:43:11;;;;;;;;;2.25;2.25;;;;;17.79;58.14;101757.03;5029691;28;9009;-66
2022/07/29 06:45:40;;;;;;;;;2.25;2.25;;;;;17.72;58.08;101754.31;5011653;28;8952;-66
2022/07/29 06:48:07;;;;;;;;;5.00;5.00;;;;;17.70;58.55;101752.84;4990453;28;9583;-66
2022/07/29 06:50:34;;;;;;;;;2.00;2.00;;;;;17.71;58.52;101749.94;4990951;28;8941;-66
2022/07/29 06:53:00;;;;;;;;;2.00;2.00;;;;;17.75;58.79;101751.19;5010693;28;8825;-65
2022/07/29 06:55:27;;;;;;;;;4.00;2.00;;;;;17.84;58.62;101742.75;5012512;28;8901;-66
2022/07/29 06:57:53;;;;;;;;;2.75;2.50;;;;;17.92;58.27;101747.94;5007083;28;9742;-66
2022/07/29 07:00:20;;;;;;;;;2.00;2.00;;;;;17.86;58.09;101746.06;5026804;28;8858;-66
2022/07/29 07:02:46;;;;;;;;;2.00;2.00;;;;;17.79;58.58;101762.47;5030062;28;9531;-66
2022/07/29 07:05:13;;;;;;;;;1.75;1.75;;;;;17.80;58.71;101764.16;5020222;28;8851;-66
2022/07/29 07:07:39;;;;;;;;;1.00;1.00;;;;;17.80;58.30;101764.16;5012562;28;8871;-66
2022/07/29 07:10:06;;;;;;;;;2.00;2.00;;;;;17.78;58.43;101763.50;5024846;28;8991;-66
2022/07/29 07:12:33;;;;;;;;;1.50;1.50;;;;;17.69;58.54;101768.34;5011284;28;8893;-66
2022/07/29 07:14:59;;;;;;;;;6.50;2.25;;;;;17.63;58.47;101766.53;5010192;28;9665;-65
2022/07/29 07:17:25;;;;;;;;;1.00;1.00;;;;;17.68;58.29;101774.88;5009911;28;8835;-66
2022/07/29 07:19:52;;;;;;;;;2.00;2.00;;;;;17.72;58.20;101767.94;4999997;28;8845;-66
2022/07/29 07:22:18;;;;;;;;;3.00;2.00;;;;;17.81;57.85;101768.53;5002789;28;8831;-66
2022/07/29 07:24:45;;;;;;;;;2.00;2.00;;;;;17.81;57.63;101771.25;5013237;28;8828;-66
2022/07/29 07:27:11;;;;;;;;;1.25;1.25;;;;;17.82;57.93;101774.81;5015380;28;8966;-66
2022/07/29 07:29:40;;;;;;;;;2.00;2.00;;;;;17.78;57.68;101782.56;5016483;28;8849;-65
2022/07/29 07:32:09;;;;;;;;;5.00;5.00;;;;;17.76;58.11;101777.38;4997323;28;8900;-65
2022/07/29 07:34:37;;;;;;;;;3.00;3.00;;;;;17.83;58.33;101779.22;5010743;28;8931;-65
2022/07/29 07:37:04;;;;;;;;;3.50;3.50;;;;;17.86;58.15;101779.59;5010377;28;8922;-66
2022/07/29 07:39:30;;;;;;;;;2.75;2.75;;;;;17.89;57.63;101781.88;5017132;28;8861;-65
2022/07/29 07:41:57;;;;;;;;;4.75;2.00;;;;;17.89;58.14;101783.78;5015580;28;8835;-65
2022/07/29 07:44:23;;;;;;;;;4.00;2.25;;;;;17.89;57.80;101767.44;5000279;28;9546;-65
2022/07/29 07:46:49;;;;;;;;;4.50;3.00;;;;;17.92;58.20;101765.09;5009125;28;8929;-66
2022/07/29 07:49:16;;;;;;;;;2.75;2.75;;;;;18.00;57.88;101753.94;5014673;28;8843;-66
2022/07/29 07:51:43;;;;;;;;;1.75;1.75;;;;;18.06;57.84;101754.94;5008779;28;8855;-66
2022/07/29 07:54:16;;;;;;;;;2.25;2.25;;;;;18.06;57.33;101756.81;5008081;28;8985;-66
2022/07/29 07:56:43;;;;;;;;;4.00;2.00;;;;;18.08;57.28;101760.19;5022402;28;8837;-66
2022/07/29 07:59:10;;;;;;;;;1.00;1.00;;;;;18.13;57.24;101769.34;5006334;28;8843;-66
2022/07/29 08:01:36;;;;;;;;;2.25;2.25;;;;;18.24;57.00;101763.19;5007760;28;8854;-66
2022/07/29 08:04:21;;;;;;;;;3.50;3.50;;;;;18.23;56.74;101757.94;5012404;28;8835;-66
2022/07/29 08:06:56;;;;;;;;;3.00;3.00;;;;;18.23;56.22;101757.94;5007447;28;9549;-65
2022/07/29 08:09:23;;;;;;;;;2.00;2.00;;;;;18.15;57.16;101761.81;4998762;28;8855;-66
2022/07/29 08:11:56;;;;;;;;;3.75;3.00;;;;;18.15;57.33;101756.34;5007801;28;8847;-65
2022/07/29 08:14:22;;;;;;;;;4.00;2.00;;;;;18.20;57.32;101764.69;5026955;28;8906;-66
2022/07/29 08:16:49;;;;;;;;;2.00;2.00;;;;;18.27;57.16;101761.88;5019539;28;8906;-64
2022/07/29 08:19:16;;;;;;;;;3.75;3.25;;;;;18.34;57.41;101759.94;5016116;28;8832;-65
2022/07/29 08:21:42;;;;;;;;;2.25;2.25;;;;;18.36;56.77;101767.91;5012410;28;8816;-65
2022/07/29 08:26:54;;;;;;;;;4.00;3.00;;;;;18.20;57.76;101759.22;5010901;28;8947;-65
2022/07/29 08:29:20;;;;;;;;;2.00;2.00;;;;;18.24;57.88;101763.19;5014965;28;8954;-66
2022/07/29 08:31:47;;;;;;;;;2.00;2.00;;;;;18.33;57.51;101769.19;5013681;28;8860;-65
2022/07/29 08:34:13;;;;;;;;;2.50;2.50;;;;;18.35;57.92;101775.25;5007482;28;8920;-64
2022/07/29 08:36:40;;;;;;;;;3.50;3.00;;;;;18.44;57.86;101787.53;5005054;28;8915;-66
2022/07/29 08:39:06;;;;;;;;;2.00;2.00;;;;;18.53;57.63;101779.91;5014521;28;9603;-67
2022/07/29 08:41:32;;;;;;;;;3.00;2.00;;;;;18.54;57.51;101776.94;5016574;28;8958;-66
2022/07/29 08:43:59;;;;;;;;;5.00;4.00;;;;;18.49;57.40;101774.06;5002410;28;9087;-66
2022/07/29 08:46:25;;;;;;;;;0.00;0.00;;;;;18.56;57.52;101776.75;5018279;28;8905;-66
2022/07/29 08:48:52;;;;;;;;;2.75;2.75;;;;;18.65;57.39;101778.13;4997162;28;8853;-66
2022/07/29 08:51:21;;;;;;;;;2.75;2.75;;;;;18.73;57.37;101787.94;5007663;28;9619;-65
2022/07/29 08:53:49;;;;;;;;;2.00;2.00;;;;;18.78;56.96;101777.16;5009170;28;8902;-65
2022/07/29 08:56:17;;;;;;;;;2.00;2.00;;;;;18.80;57.20;101785.97;5010590;28;8941;-65
2022/07/29 08:58:46;;;;;;;;;3.75;3.75;;;;;18.78;56.55;101788.91;5007577;28;8833;-66
2022/07/29 09:01:24;;;;;;;;;3.75;3.75;;;;;18.68;57.21;101793.22;5024874;28;8821;-66
2022/07/29 09:04:04;;;;;;;;;3.00;3.00;;;;;18.66;57.49;101787.97;5011496;28;8821;-66
2022/07/29 09:06:34;;;;;;;;;2.50;2.50;;;;;18.73;57.16;101796.13;5009694;28;8933;-65
2022/07/29 09:09:00;;;;;;;;;4.00;4.00;;;;;18.68;57.47;101787.75;5021650;28;8828;-65
2022/07/29 09:11:28;;;;;;;;;3.50;2.75;;;;;18.72;57.55;101789.00;5013471;28;8855;-66
2022/07/29 09:13:54;;;;;;;;;3.75;3.75;;;;;18.84;57.29;101786.34;5016503;28;8832;-66
2022/07/29 09:16:21;;;;;;;;;4.50;3.25;;;;;18.89;57.01;101787.34;5020438;28;8892;-66
2022/07/29 09:19:23;;;;;;;;;4.00;4.00;;;;;18.95;56.83;101782.84;5016074;28;8827;-66
2022/07/29 09:22:00;;;;;;;;;3.50;3.50;;;;;18.97;56.92;101778.03;5003567;28;9000;-66
2022/07/29 09:24:42;;;;;;;;;4.50;3.25;;;;;19.00;57.03;101780.31;5031115;28;8836;-66
2022/07/29 09:27:21;;;;;;;;;3.25;3.00;;;;;19.02;56.79;101770.81;5008624;28;8962;-66
2022/07/29 09:29:59;;;;;;;;;3.75;3.00;;;;;19.12;57.17;101763.97;5013786;28;8831;-65
2022/07/29 09:32:26;;;;;;;;;2.00;2.00;;;;;19.23;56.87;101763.22;5006827;28;8861;-65
2022/07/29 09:35:16;;;;;;;;;2.75;2.75;;;;;19.29;56.53;101767.78;5011508;28;8835;-66
2022/07/29 09:37:43;;;;;;;;;5.25;3.00;;;;;19.26;56.61;101763.59;5019455;28;9569;-66
2022/07/29 09:40:15;;;;;;;;;2.00;2.00;;;;;19.32;56.74;101755.53;5014387;28;8876;-66
2022/07/29 09:42:44;;;;;;;;;2.00;2.00;;;;;19.46;56.53;101762.50;5008450;28;8831;-66
2022/07/29 09:45:12;;;;;;;;;2.00;2.00;;;;;19.57;56.42;101758.13;5017196;28;8902;-65
2022/07/29 09:47:48;;;;;;;;;5.50;3.00;;;;;19.65;56.04;101761.44;5012718;28;8811;-66
2022/07/29 09:50:16;;;;;;;;;3.00;2.50;;;;;19.68;55.78;101757.38;5001037;28;8860;-66
2022/07/29 09:52:48;;;;;;;;;6.25;5.75;;;;;19.61;56.14;101762.97;5004941;28;8863;-65
2022/07/29 09:55:15;;;;;;;;;4.00;3.00;;;;;19.64;56.50;101759.75;5011713;28;8835;-65
2022/07/29 09:57:44;;;;;;;;;2.00;2.00;;;;;19.84;55.89;101759.44;5013344;28;8819;-66
2022/07/29 10:00:17;;;;;;;;;4.00;4.00;;;;;19.94;55.77;101770.66;4999238;28;8943;-65
2022/07/29 10:02:46;;;;;;;;;3.25;2.25;;;;;19.90;55.28;101772.19;5017523;28;8836;-66
2022/07/29 10:05:24;;;;;;;;;5.00;4.00;;;;;19.96;55.25;101759.47;5012472;28;8823;-65
2022/07/29 10:07:53;;;;;;;;;5.25;5.00;;;;;19.96;55.05;101764.94;5005236;28;8995;-65
2022/07/29 10:10:24;;;;;;;;;6.00;5.00;;;;;19.87;55.19;101766.34;5011735;28;8832;-65
2022/07/29 10:12:57;;;;;;;;;3.25;3.00;;;;;19.90;55.37;101765.91;5002520;28;8858;-66
2022/07/29 10:15:36;;;;;;;;;4.00;3.00;;;;;19.99;55.80;101770.78;5014265;28;8831;-65
2022/07/29 10:18:04;;;;;;;;;4.50;3.25;;;;;20.14;55.02;101772.25;5018589;28;8917;-65
2022/07/29 10:20:30;;;;;;;;;6.25;4.75;;;;;20.13;54.19;101762.34;5016841;28;8831;-66
2022/07/29 10:22:57;;;;;;;;;3.50;3.50;;;;;20.18;54.60;101763.34;5012016;28;8844;-66
2022/07/29 10:25:25;;;;;;;;;5.75;5.75;;;;;20.22;54.41;101767.25;5007207;28;8835;-66
2022/07/29 10:27:53;;;;;;;;;3.00;3.00;;;;;20.31;54.40;101770.47;5017459;28;9527;-66
2022/07/29 10:30:21;;;;;;;;;4.00;4.00;;;;;20.35;54.25;101768.09;5009521;28;9252;-65
2022/07/29 10:33:00;;;;;;;;;1.00;1.00;;;;;20.40;54.37;101773.69;5006037;28;8797;-66
2022/07/29 10:35:52;;;;;;;;;3.00;3.00;;;;;20.54;53.99;101768.84;5016925;28;8937;-65
2022/07/29 10:38:43;;;;;;;;;5.75;5.75;;;;;20.52;53.49;101762.78;5003683;28;8831;-65
2022/07/29 10:41:26;;;;;;;;;3.50;3.50;;;;;20.49;53.78;101761.34;5004579;28;8896;-65
2022/07/29 10:44:08;;;;;;;;;5.00;5.00;;;;;20.45;54.36;101771.91;5002402;28;8874;-65
2022/07/29 10:46:43;;;;;;;;;5.50;4.00;;;;;20.49;54.30;101766.81;5017719;28;8809;-65
2022/07/29 10:49:20;;;;;;;;;2.25;2.25;;;;;20.53;54.47;101762.53;5015145;28;8864;-65
2022/07/29 10:52:09;;;;;;;;;7.50;4.25;;;;;20.54;54.05;101766.97;5012510;28;9562;-64
2022/07/29 10:54:35;;;;;;;;;4.75;4.25;;;;;20.52;54.50;101762.78;5018512;28;8839;-64
2022/07/29 10:57:18;;;;;;;;;6.25;5.75;;;;;20.57;53.91;101769.19;5008418;28;9492;-65
2022/07/29 10:59:49;;;;;;;;;4.25;4.25;;;;;20.56;54.69;101775.75;5031508;28;8816;-65
2022/07/29 11:02:36;;;;;;;;;6.00;3.25;;;;;20.56;54.23;101767.53;5021250;28;8847;-66
2022/07/29 11:05:11;;;;;;;;;6.00;4.50;;;;;20.61;54.24;101767.66;4999252;28;8827;-65
2022/07/29 11:07:40;;;;;;;;;3.25;3.25;;;;;20.59;54.20;101771.72;5020516;28;8850;-65
2022/07/29 11:10:15;;;;;;;;;4.50;4.25;;;;;20.54;54.22;101761.50;5018878;28;8838;-66
2022/07/29 11:12:41;;;;;;;;;5.75;4.50;;;;;20.51;54.71;101764.69;5017916;28;8871;-66
2022/07/29 11:15:23;;;;;;;;;4.25;4.25;;;;;20.57;54.58;101765.63;5022442;28;8835;-66
2022/07/29 11:17:53;;;;;;;;;4.00;4.00;;;;;20.66;54.61;101767.78;5001359;28;8850;-66
2022/07/29 11:20:42;;;;;;;;;3.75;3.50;;;;;20.76;54.73;101761.69;5021291;28;8829;-66
2022/07/29 11:23:29;;;;;;;;;6.50;5.75;;;;;20.81;54.16;101760.97;5003518;28;8933;-66
2022/07/29 11:26:09;;;;;;;;;6.50;5.75;;;;;20.67;54.61;101763.97;5013413;28;8821;-66
2022/07/29 11:28:50;;;;;;;;;8.75;6.50;;;;;20.59;54.69;101777.19;5018751;28;8828;-66
2022/07/29 11:31:42;;;;;;;;;4.00;4.00;;;;;20.65;54.50;101765.28;5021017;28;8867;-65
2022/07/29 11:34:30;;;;;;;;;6.75;6.00;;;;;20.77;54.11;101754.31;5004858;28;8835;-67
2022/07/29 11:37:06;;;;;;;;;7.75;6.25;;;;;20.83;54.01;101762.41;5012208;28;8970;-67
2022/07/29 11:39:34;;;;;;;;;4.25;3.00;;;;;20.85;53.89;101759.44;5023261;28;8811;-66
2022/07/29 11:42:24;;;;;;;;;8.00;6.50;;;;;20.82;53.94;101758.00;5033738;28;8929;-66
2022/07/29 11:45:17;;;;;;;;;5.25;4.00;;;;;20.81;54.00;101761.81;5018328;28;8851;-66
2022/07/29 11:48:05;;;;;;;;;3.75;3.75;;;;;20.86;54.32;101761.09;5022699;28;8854;-67
2022/07/29 11:50:52;;;;;;;;;5.25;5.25;;;;;21.04;53.73;101762.84;5020929;28;8900;-66
2022/07/29 11:53:19;;;;;;;;;8.25;5.00;;;;;21.04;53.76;101763.69;5027152;28;8850;-66
2022/07/29 11:55:54;;;;;;;;;7.00;7.00;;;;;21.08;53.13;101770.34;5023857;28;8906;-66
2022/07/29 11:58:24;;;;;;;;;7.75;6.00;;;;;21.05;53.31;101764.50;5011298;28;8930;-66
2022/07/29 12:00:52;;;;;;;;;6.75;5.50;;;;;21.09;53.40;101768.44;5023699;28;8848;-67